sensor_id;sensor_type;location;lat;lon;timestamp;P1;durP1;ratioP1;P2;durP2;ratioP2
1414;SDS011;702;49.466;11.086;2023-04-15T00:00:38;17.60;;;15.67;;
1414;SDS011;702;49.466;11.086;2023-04-15T00:03:05;16.73;;;14.80;;
1414;SDS011;702;49.466;11.086;2023-04-15T00:05:33;16.30;;;14.60;;
1414;SDS011;702;49.466;11.086;2023-04-15T00:08:00;13.87;;;12.47;;
1414;SDS011;702;49.466;11.086;2023-04-15T00:10:29;15.07;;;13.47;;
1414;SDS011;702;49.466;11.086;2023-04-15T00:12:56;12.87;;;11.57;;
1414;SDS011;702;49.466;11.086;2023-04-15T00:15:24;16.13;;;14.10;;
1414;SDS011;702;49.466;11.086;2023-04-15T00:17:52;14.00;;;12.60;;
1414;SDS011;702;49.466;11.086;2023-04-15T00:20:20;16.93;;;14.70;;
1414;SDS011;702;49.466;11.086;2023-04-15T00:22:47;16.73;;;14.27;;
1414;SDS011;702;49.466;11.086;2023-04-15T00:25:14;23.10;;;19.17;;
1414;SDS011;702;49.466;11.086;2023-04-15T00:27:42;18.33;;;15.33;;
1414;SDS011;702;49.466;11.086;2023-04-15T00:30:09;19.47;;;15.10;;
1414;SDS011;702;49.466;11.086;2023-04-15T00:32:37;15.83;;;11.80;;
1414;SDS011;702;49.466;11.086;2023-04-15T00:35:08;12.80;;;11.43;;
1414;SDS011;702;49.466;11.086;2023-04-15T00:37:35;12.87;;;11.50;;
1414;SDS011;702;49.466;11.086;2023-04-15T00:40:02;13.93;;;12.23;;
1414;SDS011;702;49.466;11.086;2023-04-15T00:42:33;11.53;;;10.43;;
1414;SDS011;702;49.466;11.086;2023-04-15T00:45:01;12.63;;;10.53;;
1414;SDS011;702;49.466;11.086;2023-04-15T00:47:31;12.43;;;11.13;;
1414;SDS011;702;49.466;11.086;2023-04-15T00:50:01;16.00;;;12.20;;
1414;SDS011;702;49.466;11.086;2023-04-15T00:52:30;14.33;;;12.83;;
1414;SDS011;702;49.466;11.086;2023-04-15T00:54:57;17.07;;;14.60;;
1414;SDS011;702;49.466;11.086;2023-04-15T00:57:26;18.93;;;14.43;;
1414;SDS011;702;49.466;11.086;2023-04-15T00:59:54;15.50;;;13.10;;
1414;SDS011;702;49.466;11.086;2023-04-15T01:02:23;18.70;;;15.33;;
1414;SDS011;702;49.466;11.086;2023-04-15T01:04:50;19.23;;;14.70;;
1414;SDS011;702;49.466;11.086;2023-04-15T01:07:17;12.93;;;11.73;;
1414;SDS011;702;49.466;11.086;2023-04-15T01:09:46;12.23;;;11.03;;
1414;SDS011;702;49.466;11.086;2023-04-15T01:12:13;13.17;;;9.90;;
1414;SDS011;702;49.466;11.086;2023-04-15T01:14:42;11.37;;;10.20;;
1414;SDS011;702;49.466;11.086;2023-04-15T01:17:09;12.73;;;10.60;;
1414;SDS011;702;49.466;11.086;2023-04-15T01:19:37;10.30;;;9.30;;
1414;SDS011;702;49.466;11.086;2023-04-15T01:22:06;11.13;;;10.03;;
1414;SDS011;702;49.466;11.086;2023-04-15T01:24:34;11.03;;;9.80;;
1414;SDS011;702;49.466;11.086;2023-04-15T01:27:04;14.23;;;12.73;;
1414;SDS011;702;49.466;11.086;2023-04-15T01:29:34;14.70;;;12.80;;
1414;SDS011;702;49.466;11.086;2023-04-15T01:32:05;12.63;;;11.37;;
1414;SDS011;702;49.466;11.086;2023-04-15T01:34:32;11.93;;;10.73;;
1414;SDS011;702;49.466;11.086;2023-04-15T01:37:00;12.10;;;10.90;;
1414;SDS011;702;49.466;11.086;2023-04-15T01:39:27;11.47;;;10.17;;
1414;SDS011;702;49.466;11.086;2023-04-15T01:41:54;11.87;;;10.50;;
1414;SDS011;702;49.466;11.086;2023-04-15T01:44:23;10.97;;;9.80;;
1414;SDS011;702;49.466;11.086;2023-04-15T01:46:50;11.20;;;10.00;;
1414;SDS011;702;49.466;11.086;2023-04-15T01:49:17;16.27;;;12.67;;
1414;SDS011;702;49.466;11.086;2023-04-15T01:51:45;22.80;;;17.37;;
1414;SDS011;702;49.466;11.086;2023-04-15T01:54:12;18.63;;;16.10;;
1414;SDS011;702;49.466;11.086;2023-04-15T01:56:39;14.43;;;12.60;;
1414;SDS011;702;49.466;11.086;2023-04-15T01:59:06;16.80;;;14.20;;
1414;SDS011;702;49.466;11.086;2023-04-15T02:01:35;15.13;;;13.57;;
1414;SDS011;702;49.466;11.086;2023-04-15T02:04:02;12.10;;;10.87;;
1414;SDS011;702;49.466;11.086;2023-04-15T02:06:29;13.63;;;11.00;;
1414;SDS011;702;49.466;11.086;2023-04-15T02:08:57;13.37;;;11.20;;
1414;SDS011;702;49.466;11.086;2023-04-15T02:11:24;11.47;;;9.63;;
1414;SDS011;702;49.466;11.086;2023-04-15T02:13:51;10.77;;;9.67;;
1414;SDS011;702;49.466;11.086;2023-04-15T02:16:18;10.47;;;9.47;;
1414;SDS011;702;49.466;11.086;2023-04-15T02:18:48;11.33;;;10.13;;
1414;SDS011;702;49.466;11.086;2023-04-15T02:21:16;15.47;;;13.40;;
1414;SDS011;702;49.466;11.086;2023-04-15T02:23:43;19.43;;;14.53;;
1414;SDS011;702;49.466;11.086;2023-04-15T02:26:12;22.17;;;16.30;;
1414;SDS011;702;49.466;11.086;2023-04-15T02:28:40;20.60;;;15.83;;
1414;SDS011;702;49.466;11.086;2023-04-15T02:31:07;18.03;;;15.50;;
1414;SDS011;702;49.466;11.086;2023-04-15T02:33:35;15.67;;;13.20;;
1414;SDS011;702;49.466;11.086;2023-04-15T02:36:04;12.90;;;11.23;;
1414;SDS011;702;49.466;11.086;2023-04-15T02:38:32;14.30;;;12.23;;
1414;SDS011;702;49.466;11.086;2023-04-15T02:40:59;12.63;;;9.87;;
1414;SDS011;702;49.466;11.086;2023-04-15T02:43:26;12.30;;;10.87;;
1414;SDS011;702;49.466;11.086;2023-04-15T02:45:53;12.50;;;10.90;;
1414;SDS011;702;49.466;11.086;2023-04-15T02:48:21;10.90;;;9.80;;
1414;SDS011;702;49.466;11.086;2023-04-15T02:50:48;10.00;;;9.10;;
1414;SDS011;702;49.466;11.086;2023-04-15T02:53:17;9.70;;;8.77;;
1414;SDS011;702;49.466;11.086;2023-04-15T02:55:44;10.83;;;8.83;;
1414;SDS011;702;49.466;11.086;2023-04-15T02:58:11;10.40;;;9.40;;
1414;SDS011;702;49.466;11.086;2023-04-15T03:00:39;10.87;;;9.87;;
1414;SDS011;702;49.466;11.086;2023-04-15T03:03:06;9.40;;;8.50;;
1414;SDS011;702;49.466;11.086;2023-04-15T03:05:34;9.90;;;9.00;;
1414;SDS011;702;49.466;11.086;2023-04-15T03:08:03;9.90;;;8.90;;
1414;SDS011;702;49.466;11.086;2023-04-15T03:10:32;10.90;;;9.80;;
1414;SDS011;702;49.466;11.086;2023-04-15T03:12:59;11.23;;;10.10;;
1414;SDS011;702;49.466;11.086;2023-04-15T03:15:26;10.80;;;9.77;;
1414;SDS011;702;49.466;11.086;2023-04-15T03:17:53;10.20;;;9.20;;
1414;SDS011;702;49.466;11.086;2023-04-15T03:20:21;10.57;;;9.47;;
1414;SDS011;702;49.466;11.086;2023-04-15T03:22:48;12.23;;;9.70;;
1414;SDS011;702;49.466;11.086;2023-04-15T03:25:16;9.77;;;8.87;;
1414;SDS011;702;49.466;11.086;2023-04-15T03:27:44;9.07;;;8.17;;
1414;SDS011;702;49.466;11.086;2023-04-15T03:30:12;9.13;;;8.03;;
1414;SDS011;702;49.466;11.086;2023-04-15T03:32:39;9.73;;;8.83;;
1414;SDS011;702;49.466;11.086;2023-04-15T03:35:07;9.10;;;8.20;;
1414;SDS011;702;49.466;11.086;2023-04-15T03:37:34;9.77;;;8.23;;
1414;SDS011;702;49.466;11.086;2023-04-15T03:40:02;8.87;;;8.00;;
1414;SDS011;702;49.466;11.086;2023-04-15T03:42:30;10.30;;;7.93;;
1414;SDS011;702;49.466;11.086;2023-04-15T03:44:58;9.17;;;8.30;;
1414;SDS011;702;49.466;11.086;2023-04-15T03:47:25;11.80;;;9.57;;
1414;SDS011;702;49.466;11.086;2023-04-15T03:49:53;8.83;;;7.60;;
1414;SDS011;702;49.466;11.086;2023-04-15T03:52:20;10.60;;;8.13;;
1414;SDS011;702;49.466;11.086;2023-04-15T03:54:47;8.53;;;7.73;;
1414;SDS011;702;49.466;11.086;2023-04-15T03:57:14;8.70;;;7.80;;
1414;SDS011;702;49.466;11.086;2023-04-15T03:59:41;8.20;;;7.50;;
1414;SDS011;702;49.466;11.086;2023-04-15T04:02:10;8.47;;;7.63;;
1414;SDS011;702;49.466;11.086;2023-04-15T04:04:37;9.43;;;8.53;;
1414;SDS011;702;49.466;11.086;2023-04-15T04:07:04;8.20;;;7.40;;
1414;SDS011;702;49.466;11.086;2023-04-15T04:09:32;13.57;;;8.33;;
1414;SDS011;702;49.466;11.086;2023-04-15T04:11:59;8.90;;;8.00;;
1414;SDS011;702;49.466;11.086;2023-04-15T04:14:26;8.17;;;7.37;;
1414;SDS011;702;49.466;11.086;2023-04-15T04:16:54;12.63;;;9.13;;
1414;SDS011;702;49.466;11.086;2023-04-15T04:19:23;9.27;;;8.27;;
1414;SDS011;702;49.466;11.086;2023-04-15T04:21:51;9.83;;;8.90;;
1414;SDS011;702;49.466;11.086;2023-04-15T04:24:18;10.83;;;9.43;;
1414;SDS011;702;49.466;11.086;2023-04-15T04:26:45;10.30;;;9.30;;
1414;SDS011;702;49.466;11.086;2023-04-15T04:29:13;10.63;;;9.53;;
1414;SDS011;702;49.466;11.086;2023-04-15T04:31:40;10.40;;;9.30;;
1414;SDS011;702;49.466;11.086;2023-04-15T04:34:07;10.50;;;9.13;;
1414;SDS011;702;49.466;11.086;2023-04-15T04:36:36;11.13;;;9.90;;
1414;SDS011;702;49.466;11.086;2023-04-15T04:39:04;10.77;;;9.77;;
1414;SDS011;702;49.466;11.086;2023-04-15T04:41:31;11.00;;;9.80;;
1414;SDS011;702;49.466;11.086;2023-04-15T04:43:58;10.70;;;9.60;;
1414;SDS011;702;49.466;11.086;2023-04-15T04:46:26;12.60;;;10.43;;
1414;SDS011;702;49.466;11.086;2023-04-15T04:48:53;10.73;;;9.73;;
1414;SDS011;702;49.466;11.086;2023-04-15T04:51:20;11.33;;;9.10;;
1414;SDS011;702;49.466;11.086;2023-04-15T04:53:49;14.70;;;10.40;;
1414;SDS011;702;49.466;11.086;2023-04-15T04:56:16;11.53;;;10.33;;
1414;SDS011;702;49.466;11.086;2023-04-15T04:58:44;10.50;;;9.40;;
1414;SDS011;702;49.466;11.086;2023-04-15T05:01:11;10.97;;;9.87;;
1414;SDS011;702;49.466;11.086;2023-04-15T05:03:38;10.83;;;9.73;;
1414;SDS011;702;49.466;11.086;2023-04-15T05:06:06;9.67;;;8.77;;
1414;SDS011;702;49.466;11.086;2023-04-15T05:08:34;10.57;;;9.20;;
1414;SDS011;702;49.466;11.086;2023-04-15T05:11:02;11.13;;;10.03;;
1414;SDS011;702;49.466;11.086;2023-04-15T05:13:29;12.03;;;9.80;;
1414;SDS011;702;49.466;11.086;2023-04-15T05:15:57;10.17;;;9.07;;
1414;SDS011;702;49.466;11.086;2023-04-15T05:18:24;11.10;;;8.80;;
1414;SDS011;702;49.466;11.086;2023-04-15T05:20:51;10.50;;;9.47;;
1414;SDS011;702;49.466;11.086;2023-04-15T05:23:18;11.30;;;9.60;;
1414;SDS011;702;49.466;11.086;2023-04-15T05:25:47;9.60;;;8.70;;
1414;SDS011;702;49.466;11.086;2023-04-15T05:28:16;12.27;;;9.50;;
1414;SDS011;702;49.466;11.086;2023-04-15T05:30:43;9.77;;;8.33;;
1414;SDS011;702;49.466;11.086;2023-04-15T05:33:10;10.63;;;9.53;;
1414;SDS011;702;49.466;11.086;2023-04-15T05:35:38;10.33;;;9.23;;
1414;SDS011;702;49.466;11.086;2023-04-15T05:38:05;11.03;;;10.00;;
1414;SDS011;702;49.466;11.086;2023-04-15T05:40:33;10.20;;;9.10;;
1414;SDS011;702;49.466;11.086;2023-04-15T05:43:00;10.30;;;9.40;;
1414;SDS011;702;49.466;11.086;2023-04-15T05:45:28;10.93;;;9.83;;
1414;SDS011;702;49.466;11.086;2023-04-15T05:47:56;9.80;;;8.90;;
1414;SDS011;702;49.466;11.086;2023-04-15T05:50:23;10.50;;;9.40;;
1414;SDS011;702;49.466;11.086;2023-04-15T05:52:50;10.30;;;9.03;;
1414;SDS011;702;49.466;11.086;2023-04-15T05:55:18;9.80;;;8.80;;
1414;SDS011;702;49.466;11.086;2023-04-15T05:57:46;9.33;;;8.50;;
1414;SDS011;702;49.466;11.086;2023-04-15T06:00:14;10.10;;;9.00;;
1414;SDS011;702;49.466;11.086;2023-04-15T06:02:43;9.90;;;8.90;;
1414;SDS011;702;49.466;11.086;2023-04-15T06:05:10;10.40;;;9.30;;
1414;SDS011;702;49.466;11.086;2023-04-15T06:07:38;9.63;;;8.73;;
1414;SDS011;702;49.466;11.086;2023-04-15T06:10:06;10.13;;;9.13;;
1414;SDS011;702;49.466;11.086;2023-04-15T06:12:35;10.57;;;9.50;;
1414;SDS011;702;49.466;11.086;2023-04-15T06:15:02;9.50;;;8.60;;
1414;SDS011;702;49.466;11.086;2023-04-15T06:17:31;10.40;;;8.97;;
1414;SDS011;702;49.466;11.086;2023-04-15T06:19:59;9.83;;;8.93;;
1414;SDS011;702;49.466;11.086;2023-04-15T06:22:26;10.80;;;9.80;;
1414;SDS011;702;49.466;11.086;2023-04-15T06:24:53;9.50;;;8.47;;
1414;SDS011;702;49.466;11.086;2023-04-15T06:27:21;10.40;;;9.37;;
1414;SDS011;702;49.466;11.086;2023-04-15T06:29:48;9.77;;;8.90;;
1414;SDS011;702;49.466;11.086;2023-04-15T06:32:15;11.33;;;10.27;;
1414;SDS011;702;49.466;11.086;2023-04-15T06:34:42;9.17;;;8.27;;
1414;SDS011;702;49.466;11.086;2023-04-15T06:37:11;10.33;;;9.37;;
1414;SDS011;702;49.466;11.086;2023-04-15T06:39:40;12.03;;;10.83;;
1414;SDS011;702;49.466;11.086;2023-04-15T06:42:08;10.43;;;9.43;;
1414;SDS011;702;49.466;11.086;2023-04-15T06:44:36;11.30;;;9.40;;
1414;SDS011;702;49.466;11.086;2023-04-15T06:47:04;12.30;;;10.40;;
1414;SDS011;702;49.466;11.086;2023-04-15T06:49:31;10.60;;;9.43;;
1414;SDS011;702;49.466;11.086;2023-04-15T06:51:59;11.93;;;10.60;;
1414;SDS011;702;49.466;11.086;2023-04-15T06:54:28;12.03;;;10.80;;
1414;SDS011;702;49.466;11.086;2023-04-15T06:56:55;12.07;;;10.87;;
1414;SDS011;702;49.466;11.086;2023-04-15T06:59:22;13.53;;;12.13;;
1414;SDS011;702;49.466;11.086;2023-04-15T07:01:49;10.77;;;9.67;;
1414;SDS011;702;49.466;11.086;2023-04-15T07:04:17;10.10;;;9.10;;
1414;SDS011;702;49.466;11.086;2023-04-15T07:06:44;11.80;;;9.83;;
1414;SDS011;702;49.466;11.086;2023-04-15T07:09:11;11.90;;;10.67;;
1414;SDS011;702;49.466;11.086;2023-04-15T07:11:41;11.03;;;9.83;;
1414;SDS011;702;49.466;11.086;2023-04-15T07:14:08;11.73;;;10.33;;
1414;SDS011;702;49.466;11.086;2023-04-15T07:16:35;11.00;;;9.90;;
1414;SDS011;702;49.466;11.086;2023-04-15T07:19:02;11.30;;;8.27;;
1414;SDS011;702;49.466;11.086;2023-04-15T07:21:29;10.53;;;9.53;;
1414;SDS011;702;49.466;11.086;2023-04-15T07:23:57;10.00;;;8.53;;
1414;SDS011;702;49.466;11.086;2023-04-15T07:26:25;10.03;;;9.03;;
1414;SDS011;702;49.466;11.086;2023-04-15T07:28:53;11.53;;;9.80;;
1414;SDS011;702;49.466;11.086;2023-04-15T07:31:21;10.30;;;8.63;;
1414;SDS011;702;49.466;11.086;2023-04-15T07:33:48;9.73;;;8.07;;
1414;SDS011;702;49.466;11.086;2023-04-15T07:36:15;8.90;;;8.10;;
1414;SDS011;702;49.466;11.086;2023-04-15T07:38:42;10.80;;;9.70;;
1414;SDS011;702;49.466;11.086;2023-04-15T07:41:10;9.73;;;8.73;;
1414;SDS011;702;49.466;11.086;2023-04-15T07:43:37;10.03;;;8.97;;
1414;SDS011;702;49.466;11.086;2023-04-15T07:46:06;9.77;;;8.80;;
1414;SDS011;702;49.466;11.086;2023-04-15T07:48:33;10.80;;;8.40;;
1414;SDS011;702;49.466;11.086;2023-04-15T07:51:01;11.53;;;9.10;;
1414;SDS011;702;49.466;11.086;2023-04-15T07:53:28;8.77;;;7.97;;
1414;SDS011;702;49.466;11.086;2023-04-15T07:55:55;6.40;;;5.70;;
1414;SDS011;702;49.466;11.086;2023-04-15T07:58:23;6.37;;;5.43;;
1414;SDS011;702;49.466;11.086;2023-04-15T08:00:50;7.10;;;6.40;;
1414;SDS011;702;49.466;11.086;2023-04-15T08:03:20;6.47;;;5.87;;
1414;SDS011;702;49.466;11.086;2023-04-15T08:05:48;7.83;;;7.03;;
1414;SDS011;702;49.466;11.086;2023-04-15T08:08:15;6.20;;;5.60;;
1414;SDS011;702;49.466;11.086;2023-04-15T08:10:42;6.43;;;5.83;;
1414;SDS011;702;49.466;11.086;2023-04-15T08:13:09;5.67;;;5.17;;
1414;SDS011;702;49.466;11.086;2023-04-15T08:15:37;5.57;;;5.07;;
1414;SDS011;702;49.466;11.086;2023-04-15T08:18:04;5.30;;;4.80;;
1414;SDS011;702;49.466;11.086;2023-04-15T08:20:33;6.43;;;5.63;;
1414;SDS011;702;49.466;11.086;2023-04-15T08:23:00;6.27;;;5.07;;
1414;SDS011;702;49.466;11.086;2023-04-15T08:25:27;7.20;;;6.47;;
1414;SDS011;702;49.466;11.086;2023-04-15T08:27:55;5.00;;;4.50;;
1414;SDS011;702;49.466;11.086;2023-04-15T08:30:22;5.60;;;5.00;;
1414;SDS011;702;49.466;11.086;2023-04-15T08:32:49;5.17;;;4.70;;
1414;SDS011;702;49.466;11.086;2023-04-15T08:35:16;5.93;;;5.40;;
1414;SDS011;702;49.466;11.086;2023-04-15T08:37:45;5.33;;;4.40;;
1414;SDS011;702;49.466;11.086;2023-04-15T08:40:12;3.33;;;3.03;;
1414;SDS011;702;49.466;11.086;2023-04-15T08:42:40;3.23;;;2.93;;
1414;SDS011;702;49.466;11.086;2023-04-15T08:45:10;3.10;;;2.80;;
1414;SDS011;702;49.466;11.086;2023-04-15T08:47:38;2.77;;;2.53;;
1414;SDS011;702;49.466;11.086;2023-04-15T08:50:07;3.80;;;3.50;;
1414;SDS011;702;49.466;11.086;2023-04-15T08:52:35;2.90;;;2.70;;
1414;SDS011;702;49.466;11.086;2023-04-15T08:55:08;2.87;;;2.67;;
1414;SDS011;702;49.466;11.086;2023-04-15T08:57:37;3.10;;;2.90;;
1414;SDS011;702;49.466;11.086;2023-04-15T09:00:06;3.83;;;3.43;;
1414;SDS011;702;49.466;11.086;2023-04-15T09:02:35;3.20;;;3.00;;
1414;SDS011;702;49.466;11.086;2023-04-15T09:05:02;3.70;;;3.40;;
1414;SDS011;702;49.466;11.086;2023-04-15T09:07:32;4.90;;;3.40;;
1414;SDS011;702;49.466;11.086;2023-04-15T09:10:01;5.30;;;4.73;;
1414;SDS011;702;49.466;11.086;2023-04-15T09:12:32;4.90;;;4.50;;
1414;SDS011;702;49.466;11.086;2023-04-15T09:15:01;5.17;;;4.30;;
1414;SDS011;702;49.466;11.086;2023-04-15T09:17:29;7.70;;;5.23;;
1414;SDS011;702;49.466;11.086;2023-04-15T09:20:06;5.20;;;4.73;;
1414;SDS011;702;49.466;11.086;2023-04-15T09:22:37;6.87;;;5.17;;
1414;SDS011;702;49.466;11.086;2023-04-15T09:27:55;8.80;;;5.33;;
1414;SDS011;702;49.466;11.086;2023-04-15T09:30:24;6.10;;;5.30;;
1414;SDS011;702;49.466;11.086;2023-04-15T09:32:53;4.73;;;4.33;;
1414;SDS011;702;49.466;11.086;2023-04-15T09:35:23;6.30;;;4.10;;
1414;SDS011;702;49.466;11.086;2023-04-15T09:37:52;5.80;;;5.30;;
1414;SDS011;702;49.466;11.086;2023-04-15T09:40:29;5.07;;;4.00;;
1414;SDS011;702;49.466;11.086;2023-04-15T09:42:59;5.10;;;4.07;;
1414;SDS011;702;49.466;11.086;2023-04-15T09:45:27;4.20;;;3.80;;
1414;SDS011;702;49.466;11.086;2023-04-15T09:47:55;4.03;;;3.27;;
1414;SDS011;702;49.466;11.086;2023-04-15T09:50:26;3.73;;;3.43;;
1414;SDS011;702;49.466;11.086;2023-04-15T09:52:55;4.97;;;4.50;;
1414;SDS011;702;49.466;11.086;2023-04-15T09:55:23;3.07;;;2.77;;
1414;SDS011;702;49.466;11.086;2023-04-15T09:57:51;4.37;;;3.17;;
1414;SDS011;702;49.466;11.086;2023-04-15T10:00:20;3.00;;;2.80;;
1414;SDS011;702;49.466;11.086;2023-04-15T10:02:48;4.17;;;3.77;;
1414;SDS011;702;49.466;11.086;2023-04-15T10:05:15;3.80;;;3.47;;
1414;SDS011;702;49.466;11.086;2023-04-15T10:07:42;4.80;;;4.10;;
1414;SDS011;702;49.466;11.086;2023-04-15T10:10:12;5.17;;;4.67;;
1414;SDS011;702;49.466;11.086;2023-04-15T10:12:41;5.20;;;3.93;;
1414;SDS011;702;49.466;11.086;2023-04-15T10:15:10;4.77;;;4.37;;
1414;SDS011;702;49.466;11.086;2023-04-15T10:17:43;4.10;;;3.27;;
1414;SDS011;702;49.466;11.086;2023-04-15T10:20:11;5.60;;;3.70;;
1414;SDS011;702;49.466;11.086;2023-04-15T10:22:40;4.87;;;4.27;;
1414;SDS011;702;49.466;11.086;2023-04-15T10:25:08;6.53;;;4.57;;
1414;SDS011;702;49.466;11.086;2023-04-15T10:27:37;3.30;;;3.00;;
1414;SDS011;702;49.466;11.086;2023-04-15T10:30:07;4.43;;;4.03;;
1414;SDS011;702;49.466;11.086;2023-04-15T10:32:35;4.07;;;3.53;;
1414;SDS011;702;49.466;11.086;2023-04-15T10:35:05;5.53;;;3.57;;
1414;SDS011;702;49.466;11.086;2023-04-15T10:37:34;3.40;;;3.10;;
1414;SDS011;702;49.466;11.086;2023-04-15T10:42:51;5.00;;;4.00;;
1414;SDS011;702;49.466;11.086;2023-04-15T10:45:21;3.63;;;3.30;;
1414;SDS011;702;49.466;11.086;2023-04-15T10:47:53;3.60;;;2.60;;
1414;SDS011;702;49.466;11.086;2023-04-15T10:50:25;3.30;;;3.00;;
1414;SDS011;702;49.466;11.086;2023-04-15T10:52:54;4.13;;;3.73;;
1414;SDS011;702;49.466;11.086;2023-04-15T10:55:23;4.43;;;3.83;;
1414;SDS011;702;49.466;11.086;2023-04-15T10:57:52;6.67;;;5.03;;
1414;SDS011;702;49.466;11.086;2023-04-15T11:00:23;3.40;;;3.10;;
1414;SDS011;702;49.466;11.086;2023-04-15T11:02:52;4.03;;;3.63;;
1414;SDS011;702;49.466;11.086;2023-04-15T11:05:22;3.90;;;3.60;;
1414;SDS011;702;49.466;11.086;2023-04-15T11:08:17;3.57;;;3.27;;
1414;SDS011;702;49.466;11.086;2023-04-15T11:10:49;3.47;;;2.90;;
1414;SDS011;702;49.466;11.086;2023-04-15T11:13:19;3.93;;;3.43;;
1414;SDS011;702;49.466;11.086;2023-04-15T11:15:50;3.53;;;3.23;;
1414;SDS011;702;49.466;11.086;2023-04-15T11:18:23;3.73;;;2.80;;
1414;SDS011;702;49.466;11.086;2023-04-15T11:20:54;3.90;;;3.47;;
1414;SDS011;702;49.466;11.086;2023-04-15T11:23:27;3.87;;;3.40;;
1414;SDS011;702;49.466;11.086;2023-04-15T11:25:58;4.27;;;3.87;;
1414;SDS011;702;49.466;11.086;2023-04-15T11:28:30;4.27;;;3.97;;
1414;SDS011;702;49.466;11.086;2023-04-15T11:31:02;6.00;;;4.80;;
1414;SDS011;702;49.466;11.086;2023-04-15T11:33:32;4.00;;;3.60;;
1414;SDS011;702;49.466;11.086;2023-04-15T11:36:02;3.00;;;2.80;;
1414;SDS011;702;49.466;11.086;2023-04-15T11:38:31;3.40;;;2.97;;
1414;SDS011;702;49.466;11.086;2023-04-15T11:41:00;2.30;;;2.10;;
1414;SDS011;702;49.466;11.086;2023-04-15T11:43:27;2.10;;;2.00;;
1414;SDS011;702;49.466;11.086;2023-04-15T11:46:00;2.47;;;2.27;;
1414;SDS011;702;49.466;11.086;2023-04-15T11:48:29;2.13;;;1.93;;
1414;SDS011;702;49.466;11.086;2023-04-15T11:50:59;1.77;;;1.67;;
1414;SDS011;702;49.466;11.086;2023-04-15T11:53:36;2.13;;;1.93;;
1414;SDS011;702;49.466;11.086;2023-04-15T11:56:06;2.30;;;1.90;;
1414;SDS011;702;49.466;11.086;2023-04-15T11:58:35;2.30;;;2.10;;
1414;SDS011;702;49.466;11.086;2023-04-15T12:01:04;1.67;;;1.57;;
1414;SDS011;702;49.466;11.086;2023-04-15T12:03:36;3.50;;;2.73;;
1414;SDS011;702;49.466;11.086;2023-04-15T12:06:11;2.50;;;2.30;;
1414;SDS011;702;49.466;11.086;2023-04-15T12:08:49;3.00;;;2.80;;
1414;SDS011;702;49.466;11.086;2023-04-15T12:11:19;4.43;;;4.00;;
1414;SDS011;702;49.466;11.086;2023-04-15T12:13:54;4.73;;;3.17;;
1414;SDS011;702;49.466;11.086;2023-04-15T12:16:23;3.53;;;3.23;;
1414;SDS011;702;49.466;11.086;2023-04-15T12:18:51;3.83;;;3.40;;
1414;SDS011;702;49.466;11.086;2023-04-15T12:21:22;3.23;;;2.93;;
1414;SDS011;702;49.466;11.086;2023-04-15T12:23:51;3.03;;;2.73;;
1414;SDS011;702;49.466;11.086;2023-04-15T12:26:24;3.50;;;3.00;;
1414;SDS011;702;49.466;11.086;2023-04-15T12:28:55;3.33;;;3.03;;
1414;SDS011;702;49.466;11.086;2023-04-15T12:31:26;3.27;;;2.97;;
1414;SDS011;702;49.466;11.086;2023-04-15T12:33:55;1.70;;;1.60;;
1414;SDS011;702;49.466;11.086;2023-04-15T12:36:23;1.80;;;1.70;;
1414;SDS011;702;49.466;11.086;2023-04-15T12:38:51;2.57;;;1.50;;
1414;SDS011;702;49.466;11.086;2023-04-15T12:41:18;2.17;;;1.97;;
1414;SDS011;702;49.466;11.086;2023-04-15T12:43:48;1.90;;;1.50;;
1414;SDS011;702;49.466;11.086;2023-04-15T12:46:16;2.23;;;2.07;;
1414;SDS011;702;49.466;11.086;2023-04-15T12:48:44;3.07;;;2.10;;
1414;SDS011;702;49.466;11.086;2023-04-15T12:51:11;2.63;;;2.00;;
1414;SDS011;702;49.466;11.086;2023-04-15T12:53:41;1.70;;;1.60;;
1414;SDS011;702;49.466;11.086;2023-04-15T12:56:08;2.30;;;2.10;;
1414;SDS011;702;49.466;11.086;2023-04-15T12:58:35;3.37;;;2.47;;
1414;SDS011;702;49.466;11.086;2023-04-15T13:01:03;3.07;;;2.70;;
1414;SDS011;702;49.466;11.086;2023-04-15T13:03:30;3.83;;;3.10;;
1414;SDS011;702;49.466;11.086;2023-04-15T13:05:58;3.07;;;2.33;;
1414;SDS011;702;49.466;11.086;2023-04-15T13:08:26;3.10;;;2.83;;
1414;SDS011;702;49.466;11.086;2023-04-15T13:10:54;3.37;;;2.90;;
1414;SDS011;702;49.466;11.086;2023-04-15T13:13:22;4.20;;;3.60;;
1414;SDS011;702;49.466;11.086;2023-04-15T13:15:49;3.17;;;2.97;;
1414;SDS011;702;49.466;11.086;2023-04-15T13:18:16;3.13;;;2.93;;
1414;SDS011;702;49.466;11.086;2023-04-15T13:20:44;2.77;;;2.57;;
1414;SDS011;702;49.466;11.086;2023-04-15T13:23:11;2.93;;;2.63;;
1414;SDS011;702;49.466;11.086;2023-04-15T13:25:39;2.33;;;2.13;;
1414;SDS011;702;49.466;11.086;2023-04-15T13:28:08;3.63;;;3.33;;
1414;SDS011;702;49.466;11.086;2023-04-15T13:30:38;2.73;;;2.53;;
1414;SDS011;702;49.466;11.086;2023-04-15T13:33:08;2.77;;;2.47;;
1414;SDS011;702;49.466;11.086;2023-04-15T13:35:35;4.10;;;2.80;;
1414;SDS011;702;49.466;11.086;2023-04-15T13:38:02;2.80;;;2.60;;
1414;SDS011;702;49.466;11.086;2023-04-15T13:40:29;2.27;;;2.07;;
1414;SDS011;702;49.466;11.086;2023-04-15T13:42:56;1.97;;;1.87;;
1414;SDS011;702;49.466;11.086;2023-04-15T13:45:25;1.90;;;1.80;;
1414;SDS011;702;49.466;11.086;2023-04-15T13:47:52;2.70;;;2.50;;
1414;SDS011;702;49.466;11.086;2023-04-15T13:50:21;2.87;;;2.67;;
1414;SDS011;702;49.466;11.086;2023-04-15T13:52:48;3.23;;;1.80;;
1414;SDS011;702;49.466;11.086;2023-04-15T13:55:15;2.30;;;2.10;;
1414;SDS011;702;49.466;11.086;2023-04-15T13:57:43;2.20;;;2.10;;
1414;SDS011;702;49.466;11.086;2023-04-15T14:00:11;1.50;;;1.40;;
1414;SDS011;702;49.466;11.086;2023-04-15T14:02:40;2.33;;;2.13;;
1414;SDS011;702;49.466;11.086;2023-04-15T14:05:08;1.83;;;1.73;;
1414;SDS011;702;49.466;11.086;2023-04-15T14:07:36;2.60;;;2.40;;
1414;SDS011;702;49.466;11.086;2023-04-15T14:10:04;3.30;;;2.20;;
1414;SDS011;702;49.466;11.086;2023-04-15T14:12:33;2.30;;;2.10;;
1414;SDS011;702;49.466;11.086;2023-04-15T14:15:00;4.17;;;3.77;;
1414;SDS011;702;49.466;11.086;2023-04-15T14:17:27;3.37;;;2.30;;
1414;SDS011;702;49.466;11.086;2023-04-15T14:19:56;2.50;;;2.30;;
1414;SDS011;702;49.466;11.086;2023-04-15T14:22:23;2.33;;;2.13;;
1414;SDS011;702;49.466;11.086;2023-04-15T14:24:50;2.67;;;2.47;;
1414;SDS011;702;49.466;11.086;2023-04-15T14:27:20;2.23;;;1.80;;
1414;SDS011;702;49.466;11.086;2023-04-15T14:29:47;3.00;;;2.20;;
1414;SDS011;702;49.466;11.086;2023-04-15T14:32:15;2.40;;;2.20;;
1414;SDS011;702;49.466;11.086;2023-04-15T14:34:42;2.27;;;2.13;;
1414;SDS011;702;49.466;11.086;2023-04-15T14:37:10;2.23;;;2.13;;
1414;SDS011;702;49.466;11.086;2023-04-15T14:39:38;3.00;;;2.80;;
1414;SDS011;702;49.466;11.086;2023-04-15T14:42:05;2.77;;;2.57;;
1414;SDS011;702;49.466;11.086;2023-04-15T14:44:32;2.43;;;2.23;;
1414;SDS011;702;49.466;11.086;2023-04-15T14:46:59;2.20;;;2.10;;
1414;SDS011;702;49.466;11.086;2023-04-15T14:49:26;1.87;;;1.77;;
1414;SDS011;702;49.466;11.086;2023-04-15T14:51:54;2.93;;;2.10;;
1414;SDS011;702;49.466;11.086;2023-04-15T14:54:23;2.47;;;2.27;;
1414;SDS011;702;49.466;11.086;2023-04-15T14:56:51;2.47;;;2.27;;
1414;SDS011;702;49.466;11.086;2023-04-15T14:59:18;3.67;;;2.10;;
1414;SDS011;702;49.466;11.086;2023-04-15T15:01:45;2.43;;;2.23;;
1414;SDS011;702;49.466;11.086;2023-04-15T15:04:13;2.67;;;2.27;;
1414;SDS011;702;49.466;11.086;2023-04-15T15:06:40;2.57;;;2.37;;
1414;SDS011;702;49.466;11.086;2023-04-15T15:09:07;1.93;;;1.83;;
1414;SDS011;702;49.466;11.086;2023-04-15T15:11:36;2.40;;;2.20;;
1414;SDS011;702;49.466;11.086;2023-04-15T15:14:04;3.43;;;3.13;;
1414;SDS011;702;49.466;11.086;2023-04-15T15:16:31;3.90;;;2.40;;
1414;SDS011;702;49.466;11.086;2023-04-15T15:18:58;2.27;;;2.07;;